Time;durP1;ratioP1;P1;durP2;ratioP2;P2;SDS_P1;SDS_P2;PMS_P1;PMS_P2;Temp;Humidity;BMP_temperature;BMP_pressure;BME280_temperature;BME280_humidity;BME280_pressure;Samples;Min_cycle;Max_cycle;Signal;HPM_P1;HPM_P2
2022/10/08 00:00:24;;;;;;;419.38;127.13;;;;;;;;;;5134233;27;20208;-77
2022/10/08 00:02:54;;;;;;;409.23;139.15;;;;;;;;;;5133208;27;20236;-77
2022/10/08 00:05:21;;;;;;;425.83;133.38;;;;;;;;;;5134043;27;20210;-76
2022/10/08 00:07:48;;;;;;;417.80;129.25;;;;;;;;;;5134462;27;20561;-76
2022/10/08 00:10:16;;;;;;;431.58;126.85;;;;;;;;;;5134502;27;20224;-76
2022/10/08 00:12:45;;;;;;;431.08;125.90;;;;;;;;;;5133144;27;20243;-76
2022/10/08 00:15:12;;;;;;;424.27;133.98;;;;;;;;;;5134244;27;20189;-76
2022/10/08 00:17:39;;;;;;;405.25;133.93;;;;;;;;;;5134272;27;20228;-77
2022/10/08 00:20:08;;;;;;;420.92;127.57;;;;;;;;;;5134236;27;20201;-77
2022/10/08 00:22:35;;;;;;;416.80;122.03;;;;;;;;;;5133307;27;20229;-77
2022/10/08 00:25:03;;;;;;;425.08;134.48;;;;;;;;;;5133971;27;20204;-76
2022/10/08 00:27:30;;;;;;;399.65;129.43;;;;;;;;;;5134284;27;20256;-76
2022/10/08 00:29:59;;;;;;;419.30;125.55;;;;;;;;;;5134101;27;20204;-76
2022/10/08 00:32:26;;;;;;;417.38;121.07;;;;;;;;;;5133257;27;20227;-77
2022/10/08 00:34:53;;;;;;;413.70;122.45;;;;;;;;;;5133906;27;20173;-76
2022/10/08 00:37:21;;;;;;;415.38;122.70;;;;;;;;;;5134681;27;20201;-76
2022/10/08 00:39:48;;;;;;;413.20;126.38;;;;;;;;;;5137966;27;20212;-76
2022/10/08 00:42:16;;;;;;;422.13;125.40;;;;;;;;;;5136904;27;20202;-75
2022/10/08 00:44:52;;;;;;;427.88;137.27;;;;;;;;;;5136849;27;20229;-76
2022/10/08 00:47:24;;;;;;;408.65;121.47;;;;;;;;;;5137967;27;20241;-76
2022/10/08 00:49:54;;;;;;;406.95;120.80;;;;;;;;;;5137101;27;20211;-77
2022/10/08 00:52:22;;;;;;;412.17;121.88;;;;;;;;;;5136879;27;20692;-76
2022/10/08 00:54:50;;;;;;;407.23;117.88;;;;;;;;;;5136697;27;20213;-76
2022/10/08 00:57:18;;;;;;;426.70;133.23;;;;;;;;;;5137233;27;20213;-77
2022/10/08 00:59:45;;;;;;;402.35;125.68;;;;;;;;;;5137067;27;20211;-76
2022/10/08 01:02:13;;;;;;;417.15;122.38;;;;;;;;;;5136720;27;20208;-77
2022/10/08 01:04:42;;;;;;;414.48;121.28;;;;;;;;;;5136579;27;20228;-76
2022/10/08 01:07:13;;;;;;;425.55;125.82;;;;;;;;;;5137247;27;20209;-76
2022/10/08 01:09:42;;;;;;;414.95;118.07;;;;;;;;;;5137307;27;20638;-76
2022/10/08 01:12:12;;;;;;;153.15;57.15;;;;;;;;;;5135969;27;20236;-75
2022/10/08 01:14:43;;;;;;;420.52;120.82;;;;;;;;;;5136358;27;20208;-76
2022/10/08 01:17:15;;;;;;;410.77;119.22;;;;;;;;;;5137464;27;20227;-76
2022/10/08 01:19:50;;;;;;;413.67;117.68;;;;;;;;;;5136936;27;20201;-77
2022/10/08 01:22:28;;;;;;;416.33;118.57;;;;;;;;;;5136128;27;20223;-76
2022/10/08 01:27:44;;;;;;;418.17;118.57;;;;;;;;;;5136959;27;20177;-76
2022/10/08 01:30:14;;;;;;;416.80;117.47;;;;;;;;;;5136502;27;20236;-75
2022/10/08 01:32:42;;;;;;;413.17;121.07;;;;;;;;;;5135572;27;20221;-77
2022/10/08 01:35:11;;;;;;;414.45;120.70;;;;;;;;;;5136850;27;20213;-76
2022/10/08 01:37:41;;;;;;;412.70;118.97;;;;;;;;;;5136627;27;20204;-77
2022/10/08 01:40:11;;;;;;;419.20;125.13;;;;;;;;;;5136688;27;20200;-76
2022/10/08 01:42:39;;;;;;;416.25;119.13;;;;;;;;;;5135803;27;20305;-77
2022/10/08 01:45:11;;;;;;;417.48;123.40;;;;;;;;;;5136572;27;20232;-76
2022/10/08 01:47:40;;;;;;;409.67;131.07;;;;;;;;;;5136492;27;20191;-76
2022/10/08 01:50:11;;;;;;;413.38;122.32;;;;;;;;;;5136295;27;20573;-76
2022/10/08 01:52:41;;;;;;;414.48;120.32;;;;;;;;;;5135177;27;20228;-76
2022/10/08 01:55:11;;;;;;;418.90;124.03;;;;;;;;;;5135959;27;20204;-76
2022/10/08 01:57:39;;;;;;;408.98;115.55;;;;;;;;;;5136252;27;20197;-76
2022/10/08 02:00:09;;;;;;;405.05;116.53;;;;;;;;;;5135798;27;20233;-76
2022/10/08 02:02:37;;;;;;;413.08;118.95;;;;;;;;;;5135290;27;20205;-77
2022/10/08 02:05:05;;;;;;;404.25;114.75;;;;;;;;;;5135922;27;20205;-76
2022/10/08 02:07:33;;;;;;;409.13;117.53;;;;;;;;;;5135871;27;20189;-76
2022/10/08 02:10:06;;;;;;;402.88;112.05;;;;;;;;;;5135694;27;20212;-76
2022/10/08 02:12:34;;;;;;;400.23;116.57;;;;;;;;;;5134893;27;20229;-77
2022/10/08 02:15:03;;;;;;;406.63;116.55;;;;;;;;;;5135038;27;20212;-77
2022/10/08 02:17:35;;;;;;;405.20;118.03;;;;;;;;;;5135919;27;20612;-76
2022/10/08 02:20:05;;;;;;;401.23;112.97;;;;;;;;;;5135844;27;20196;-76
2022/10/08 02:22:35;;;;;;;421.35;120.60;;;;;;;;;;5135434;27;20224;-76
2022/10/08 02:25:07;;;;;;;411.67;123.78;;;;;;;;;;5135074;27;20221;-76
2022/10/08 02:27:41;;;;;;;421.98;123.93;;;;;;;;;;5135503;27;20557;-76
2022/10/08 02:30:10;;;;;;;400.50;114.20;;;;;;;;;;5135608;27;20573;-76
2022/10/08 02:32:43;;;;;;;399.67;115.35;;;;;;;;;;5134913;27;20224;-77
2022/10/08 02:35:12;;;;;;;404.58;116.65;;;;;;;;;;5135283;27;20199;-76
2022/10/08 02:37:43;;;;;;;407.15;116.55;;;;;;;;;;5134721;27;20215;-77
2022/10/08 02:40:11;;;;;;;403.45;115.22;;;;;;;;;;5135096;27;20653;-76
2022/10/08 02:42:41;;;;;;;420.13;121.75;;;;;;;;;;5134622;27;20221;-76
2022/10/08 02:45:09;;;;;;;409.98;114.93;;;;;;;;;;5134913;27;20757;-76
2022/10/08 02:47:37;;;;;;;408.65;117.63;;;;;;;;;;5134804;27;20217;-76
2022/10/08 02:50:09;;;;;;;424.35;120.53;;;;;;;;;;5135294;27;20232;-76
2022/10/08 02:52:38;;;;;;;412.25;121.55;;;;;;;;;;5134275;27;20233;-76
2022/10/08 02:55:08;;;;;;;412.13;119.60;;;;;;;;;;5134942;27;20239;-76
2022/10/08 02:57:38;;;;;;;412.00;128.70;;;;;;;;;;5134729;27;20213;-76
2022/10/08 03:00:06;;;;;;;418.48;121.15;;;;;;;;;;5134526;27;20571;-76
2022/10/08 03:02:37;;;;;;;424.77;125.15;;;;;;;;;;5134406;27;20221;-76
2022/10/08 03:05:08;;;;;;;405.08;120.97;;;;;;;;;;5135080;27;20216;-76
2022/10/08 03:07:36;;;;;;;418.33;127.97;;;;;;;;;;5134420;27;20181;-77
2022/10/08 03:10:06;;;;;;;412.83;127.28;;;;;;;;;;5134276;27;20205;-76
2022/10/08 03:12:33;;;;;;;419.10;125.18;;;;;;;;;;5134008;27;20229;-77
2022/10/08 03:15:01;;;;;;;415.45;124.80;;;;;;;;;;5134509;27;20205;-76
2022/10/08 03:17:31;;;;;;;419.23;125.53;;;;;;;;;;5134704;27;20200;-76
2022/10/08 03:20:01;;;;;;;428.30;136.23;;;;;;;;;;5134654;27;20625;-76
2022/10/08 03:22:31;;;;;;;424.67;130.75;;;;;;;;;;5133640;27;20760;-76
2022/10/08 03:24:58;;;;;;;429.27;133.05;;;;;;;;;;5134618;27;20213;-76
2022/10/08 03:27:26;;;;;;;427.95;131.00;;;;;;;;;;5134562;27;20624;-75
2022/10/08 03:29:56;;;;;;;427.88;136.13;;;;;;;;;;5134656;27;20227;-76
2022/10/08 03:32:23;;;;;;;430.90;134.30;;;;;;;;;;5133421;27;20232;-77
2022/10/08 03:34:50;;;;;;;429.85;140.00;;;;;;;;;;5134320;27;20215;-76
2022/10/08 03:37:18;;;;;;;421.77;137.65;;;;;;;;;;5134621;27;20562;-76
2022/10/08 03:39:47;;;;;;;415.42;126.22;;;;;;;;;;5134814;27;20208;-77
2022/10/08 03:42:14;;;;;;;429.58;137.05;;;;;;;;;;5133903;27;20205;-77
2022/10/08 03:44:41;;;;;;;413.95;128.65;;;;;;;;;;5134617;27;20228;-76
2022/10/08 03:47:09;;;;;;;413.63;128.98;;;;;;;;;;5134371;27;20668;-77
2022/10/08 03:49:36;;;;;;;419.08;134.13;;;;;;;;;;5134654;27;20207;-77
2022/10/08 03:52:03;;;;;;;435.05;140.50;;;;;;;;;;5133502;27;20200;-77
2022/10/08 03:54:30;;;;;;;417.23;131.77;;;;;;;;;;5133683;27;20640;-76
2022/10/08 03:56:59;;;;;;;73.33;36.17;;;;;;;;;;5134437;27;20205;-77
2022/10/08 03:59:26;;;;;;;416.65;131.15;;;;;;;;;;5134169;27;20939;-76
2022/10/08 04:01:54;;;;;;;425.90;135.57;;;;;;;;;;5133884;27;20208;-76
2022/10/08 04:04:21;;;;;;;420.40;133.35;;;;;;;;;;5134344;27;20221;-76
2022/10/08 04:06:48;;;;;;;421.42;134.30;;;;;;;;;;5134186;27;20205;-77
2022/10/08 04:09:15;;;;;;;431.38;138.52;;;;;;;;;;5134374;27;20603;-76
2022/10/08 04:11:43;;;;;;;420.83;136.35;;;;;;;;;;5133801;27;20205;-77
2022/10/08 04:14:11;;;;;;;425.00;135.15;;;;;;;;;;5137142;27;20232;-76
2022/10/08 04:16:39;;;;;;;425.20;135.45;;;;;;;;;;5138225;27;20201;-76
2022/10/08 04:19:07;;;;;;;420.73;138.18;;;;;;;;;;5138058;27;20597;-76
2022/10/08 04:21:34;;;;;;;425.20;137.85;;;;;;;;;;5137797;27;20201;-77
2022/10/08 04:24:01;;;;;;;433.05;146.30;;;;;;;;;;5137231;27;20232;-77
2022/10/08 04:26:29;;;;;;;434.80;138.30;;;;;;;;;;5138006;27;20213;-76
2022/10/08 04:28:56;;;;;;;19.97;18.67;;;;;;;;;;5137593;27;20250;-76
2022/10/08 04:31:25;;;;;;;441.98;148.68;;;;;;;;;;5137513;27;20425;-77
2022/10/08 04:33:53;;;;;;;431.95;141.00;;;;;;;;;;5137059;27;20221;-77
2022/10/08 04:36:21;;;;;;;417.10;136.38;;;;;;;;;;5137670;27;20205;-76
2022/10/08 04:38:49;;;;;;;431.02;148.73;;;;;;;;;;5137850;27;20211;-76
2022/10/08 04:41:17;;;;;;;429.10;143.80;;;;;;;;;;5137006;27;20205;-77
2022/10/08 04:43:45;;;;;;;432.58;148.15;;;;;;;;;;5136732;27;20699;-76
2022/10/08 04:46:13;;;;;;;431.55;144.13;;;;;;;;;;5137405;27;20562;-77
2022/10/08 04:48:46;;;;;;;424.75;140.07;;;;;;;;;;5137221;27;20209;-76
2022/10/08 04:51:13;;;;;;;440.95;147.23;;;;;;;;;;5137044;27;20238;-76
2022/10/08 04:53:41;;;;;;;432.38;141.43;;;;;;;;;;5136663;27;20224;-77
2022/10/08 04:56:09;;;;;;;430.83;142.73;;;;;;;;;;5137127;27;20633;-76
2022/10/08 04:58:36;;;;;;;427.50;139.25;;;;;;;;;;5137001;27;20201;-76
2022/10/08 05:01:04;;;;;;;440.35;144.88;;;;;;;;;;5136597;27;20197;-77
2022/10/08 05:03:31;;;;;;;418.13;146.65;;;;;;;;;;5136814;27;20224;-76
2022/10/08 05:06:00;;;;;;;420.13;143.93;;;;;;;;;;5136824;27;20644;-76
2022/10/08 05:08:29;;;;;;;419.85;138.77;;;;;;;;;;5136981;27;20197;-76
2022/10/08 05:10:56;;;;;;;427.95;144.77;;;;;;;;;;5136377;27;20200;-77
2022/10/08 05:13:23;;;;;;;407.60;139.48;;;;;;;;;;5136609;27;20247;-76
2022/10/08 05:15:51;;;;;;;430.50;151.13;;;;;;;;;;5136468;27;20205;-76
2022/10/08 05:18:18;;;;;;;431.20;145.57;;;;;;;;;;5136763;27;20204;-76
2022/10/08 05:20:45;;;;;;;427.40;146.98;;;;;;;;;;5137099;27;20209;-76
2022/10/08 05:23:14;;;;;;;436.25;149.50;;;;;;;;;;5135798;27;20228;-76
2022/10/08 05:25:42;;;;;;;431.25;151.52;;;;;;;;;;5136336;27;20228;-76
2022/10/08 05:28:09;;;;;;;431.33;149.35;;;;;;;;;;5136913;27;20201;-76
2022/10/08 05:30:36;;;;;;;421.90;141.35;;;;;;;;;;5136552;27;20209;-76
2022/10/08 05:33:04;;;;;;;423.67;147.93;;;;;;;;;;5155626;27;20721;-76
2022/10/08 05:35:31;;;;;;;425.50;143.07;;;;;;;;;;5157102;27;20202;-76
2022/10/08 05:37:59;;;;;;;425.15;151.95;;;;;;;;;;5156979;27;20208;-75
2022/10/08 05:40:29;;;;;;;436.85;152.48;;;;;;;;;;5157259;27;20553;-76
2022/10/08 05:42:56;;;;;;;417.95;141.18;;;;;;;;;;5156311;27;20221;-76
2022/10/08 05:45:23;;;;;;;429.08;146.65;;;;;;;;;;5156874;27;20569;-76
2022/10/08 05:47:51;;;;;;;428.73;157.60;;;;;;;;;;5156698;27;20200;-78
2022/10/08 05:50:19;;;;;;;421.73;146.75;;;;;;;;;;5156568;27;20208;-76
2022/10/08 05:52:46;;;;;;;428.15;152.40;;;;;;;;;;5156295;27;20688;-76
2022/10/08 05:55:13;;;;;;;432.10;149.38;;;;;;;;;;5156530;27;20200;-76
2022/10/08 05:57:42;;;;;;;421.92;140.38;;;;;;;;;;5156863;27;20204;-76
2022/10/08 06:00:10;;;;;;;425.17;146.75;;;;;;;;;;5156228;27;20235;-77
2022/10/08 06:02:38;;;;;;;435.20;152.90;;;;;;;;;;5156089;27;20224;-76
2022/10/08 06:05:05;;;;;;;438.67;153.48;;;;;;;;;;5156508;27;20220;-76
2022/10/08 06:07:33;;;;;;;437.88;151.95;;;;;;;;;;5156322;27;20207;-76
2022/10/08 06:10:00;;;;;;;439.30;160.15;;;;;;;;;;5155869;27;20208;-77
2022/10/08 06:12:27;;;;;;;444.80;163.70;;;;;;;;;;5154895;27;20243;-75
2022/10/08 06:14:56;;;;;;;436.50;153.35;;;;;;;;;;5157297;27;20593;-77
2022/10/08 06:17:24;;;;;;;439.38;153.90;;;;;;;;;;5153653;27;20201;-85
2022/10/08 06:19:51;;;;;;;453.35;163.90;;;;;;;;;;5117163;27;20209;-86
2022/10/08 06:22:19;;;;;;;445.05;156.68;;;;;;;;;;5116519;28;20685;-86
2022/10/08 06:24:46;;;;;;;463.92;164.25;;;;;;;;;;5116178;28;20225;-80
2022/10/08 06:27:14;;;;;;;438.67;160.52;;;;;;;;;;5117333;28;20251;-78
2022/10/08 06:29:41;;;;;;;441.20;158.80;;;;;;;;;;5116667;27;20206;-80
2022/10/08 06:32:10;;;;;;;450.63;153.27;;;;;;;;;;5116349;28;20189;-79
2022/10/08 06:34:37;;;;;;;438.90;155.85;;;;;;;;;;5116135;28;20686;-80
2022/10/08 06:37:04;;;;;;;444.10;158.10;;;;;;;;;;5114854;28;20205;-75
2022/10/08 06:39:32;;;;;;;441.60;157.07;;;;;;;;;;5154343;27;20203;-76
2022/10/08 06:41:59;;;;;;;455.10;163.07;;;;;;;;;;5154801;27;20204;-76
2022/10/08 06:44:26;;;;;;;445.08;163.00;;;;;;;;;;5156539;27;20687;-78
2022/10/08 06:46:54;;;;;;;433.23;160.15;;;;;;;;;;5158810;27;20200;-79
2022/10/08 06:49:25;;;;;;;441.40;163.85;;;;;;;;;;5159029;27;20285;-79
2022/10/08 06:51:52;;;;;;;443.98;174.52;;;;;;;;;;5157858;27;20232;-79
2022/10/08 06:54:20;;;;;;;438.67;165.40;;;;;;;;;;5157828;27;20231;-79
2022/10/08 06:56:47;;;;;;;448.52;172.23;;;;;;;;;;5158338;27;20226;-79
2022/10/08 06:59:14;;;;;;;445.42;174.32;;;;;;;;;;5158215;27;20197;-79
2022/10/08 07:01:42;;;;;;;476.80;197.98;;;;;;;;;;5156152;27;20200;-76
2022/10/08 07:04:11;;;;;;;469.25;175.30;;;;;;;;;;5155571;27;20212;-76
2022/10/08 07:06:40;;;;;;;452.80;172.95;;;;;;;;;;5155116;27;20201;-75
2022/10/08 07:09:09;;;;;;;455.38;171.00;;;;;;;;;;5157343;27;20200;-79
2022/10/08 07:11:36;;;;;;;441.60;162.68;;;;;;;;;;5157794;27;20222;-79
2022/10/08 07:14:03;;;;;;;446.42;173.95;;;;;;;;;;5158331;27;20727;-79
2022/10/08 07:16:31;;;;;;;442.20;174.32;;;;;;;;;;5158759;27;20196;-79
2022/10/08 07:18:58;;;;;;;452.75;180.35;;;;;;;;;;5157928;27;20214;-79
2022/10/08 07:21:25;;;;;;;403.15;195.52;;;;;;;;;;5155301;27;20204;-74
2022/10/08 07:23:54;;;;;;;430.42;182.00;;;;;;;;;;5155496;27;20224;-75
2022/10/08 07:26:25;;;;;;;443.48;175.68;;;;;;;;;;5155784;27;20243;-77
2022/10/08 07:28:54;;;;;;;429.60;180.88;;;;;;;;;;5159158;27;20589;-81
2022/10/08 07:31:22;;;;;;;451.38;172.68;;;;;;;;;;5158300;27;20226;-81
2022/10/08 07:33:50;;;;;;;455.50;172.23;;;;;;;;;;5156279;27;20216;-77
2022/10/08 07:36:18;;;;;;;439.75;189.85;;;;;;;;;;5154828;27;20203;-77
2022/10/08 07:38:46;;;;;;;468.23;182.70;;;;;;;;;;5154852;27;20207;-77
2022/10/08 07:41:15;;;;;;;481.10;185.50;;;;;;;;;;5156932;27;20197;-81
2022/10/08 07:43:43;;;;;;;453.67;182.18;;;;;;;;;;5160524;27;20227;-82
2022/10/08 07:46:11;;;;;;;464.85;187.93;;;;;;;;;;5159151;27;20231;-77
2022/10/08 07:48:38;;;;;;;377.27;191.73;;;;;;;;;;5159509;27;20215;-76
2022/10/08 07:51:09;;;;;;;474.08;189.75;;;;;;;;;;5158480;27;20437;-77
2022/10/08 07:53:36;;;;;;;454.75;179.80;;;;;;;;;;5158687;27;20231;-76
2022/10/08 07:56:04;;;;;;;460.83;184.07;;;;;;;;;;5158827;27;20204;-76
2022/10/08 07:58:33;;;;;;;462.90;184.48;;;;;;;;;;5159195;27;20201;-77
2022/10/08 08:01:01;;;;;;;465.48;196.38;;;;;;;;;;5159880;27;20219;-78
2022/10/08 08:03:29;;;;;;;455.63;181.70;;;;;;;;;;5158655;27;20617;-78
2022/10/08 08:06:01;;;;;;;449.95;181.07;;;;;;;;;;5160369;27;20217;-78
2022/10/08 08:08:28;;;;;;;445.95;178.50;;;;;;;;;;5164588;27;20225;-79
2022/10/08 08:10:57;;;;;;;444.48;172.43;;;;;;;;;;5162548;27;20204;-83
2022/10/08 08:13:24;;;;;;;457.67;184.02;;;;;;;;;;5162107;27;20237;-76
2022/10/08 08:15:58;;;;;;;445.92;183.15;;;;;;;;;;5158921;27;20200;-76
2022/10/08 08:18:25;;;;;;;457.23;188.40;;;;;;;;;;5156184;27;20209;-82
2022/10/08 08:20:58;;;;;;;466.20;196.25;;;;;;;;;;5138092;27;20197;-75
2022/10/08 08:23:29;;;;;;;462.17;192.32;;;;;;;;;;5137352;27;20277;-75
2022/10/08 08:25:56;;;;;;;449.83;174.45;;;;;;;;;;5136090;27;20206;-75
2022/10/08 08:28:23;;;;;;;446.55;176.02;;;;;;;;;;5137247;27;20579;-76
2022/10/08 08:30:51;;;;;;;450.20;177.18;;;;;;;;;;5137919;27;20212;-76
2022/10/08 08:33:19;;;;;;;461.00;185.00;;;;;;;;;;5137830;27;20232;-76
2022/10/08 08:35:51;;;;;;;457.10;184.60;;;;;;;;;;5138118;27;20200;-76
2022/10/08 08:38:23;;;;;;;445.38;174.20;;;;;;;;;;5138124;27;20243;-75
2022/10/08 08:40:51;;;;;;;452.52;176.05;;;;;;;;;;5137827;27;20649;-78
2022/10/08 08:43:19;;;;;;;450.05;183.35;;;;;;;;;;5137206;27;20696;-75
2022/10/08 08:45:47;;;;;;;443.98;175.15;;;;;;;;;;5137701;27;20219;-76
2022/10/08 08:48:16;;;;;;;451.23;175.57;;;;;;;;;;5137671;27;20209;-75
2022/10/08 08:50:46;;;;;;;443.10;174.70;;;;;;;;;;5137136;27;20224;-76
2022/10/08 08:53:13;;;;;;;449.60;181.63;;;;;;;;;;5136922;27;20222;-76
2022/10/08 08:55:42;;;;;;;439.13;169.05;;;;;;;;;;5137823;27;20201;-76
2022/10/08 08:58:16;;;;;;;455.40;182.63;;;;;;;;;;5137236;27;20212;-76
2022/10/08 09:00:46;;;;;;;453.47;190.00;;;;;;;;;;5137887;27;20198;-75
2022/10/08 09:03:18;;;;;;;447.20;177.50;;;;;;;;;;5137220;27;20463;-75
2022/10/08 09:05:48;;;;;;;456.33;210.55;;;;;;;;;;5137209;27;20217;-76
2022/10/08 09:08:19;;;;;;;447.92;177.52;;;;;;;;;;5136615;27;20232;-76
2022/10/08 09:10:49;;;;;;;444.40;183.70;;;;;;;;;;5137914;27;20201;-75
2022/10/08 09:13:19;;;;;;;442.98;180.85;;;;;;;;;;5136993;27;20233;-76
2022/10/08 09:15:47;;;;;;;442.50;186.68;;;;;;;;;;5137443;27;20199;-76
2022/10/08 09:18:15;;;;;;;442.90;191.35;;;;;;;;;;5136525;27;20209;-76
2022/10/08 09:20:42;;;;;;;450.92;204.88;;;;;;;;;;5137071;27;20204;-75
2022/10/08 09:23:13;;;;;;;448.30;192.10;;;;;;;;;;5136734;27;20221;-75
2022/10/08 09:25:42;;;;;;;447.13;194.25;;;;;;;;;;5136922;27;20730;-76
2022/10/08 09:28:09;;;;;;;444.90;192.73;;;;;;;;;;5136616;27;20212;-76
2022/10/08 09:30:38;;;;;;;447.30;201.82;;;;;;;;;;5137293;27;20549;-75
2022/10/08 09:33:17;;;;;;;447.50;202.23;;;;;;;;;;5136184;27;20770;-76
2022/10/08 09:35:46;;;;;;;452.80;203.43;;;;;;;;;;5136783;27;20189;-76
2022/10/08 09:38:23;;;;;;;444.02;195.25;;;;;;;;;;5137002;27;20209;-76
2022/10/08 09:41:00;;;;;;;453.80;203.38;;;;;;;;;;5136837;27;20212;-76
2022/10/08 09:43:28;;;;;;;465.27;227.23;;;;;;;;;;5137003;27;20235;-76
2022/10/08 09:45:56;;;;;;;448.67;213.23;;;;;;;;;;5136527;27;20224;-76
2022/10/08 09:48:25;;;;;;;459.33;214.48;;;;;;;;;;5136672;27;20224;-75
2022/10/08 09:50:58;;;;;;;449.23;204.07;;;;;;;;;;5136382;27;20230;-77
2022/10/08 09:53:28;;;;;;;456.35;211.05;;;;;;;;;;5136118;27;20222;-76
2022/10/08 09:55:58;;;;;;;463.20;200.35;;;;;;;;;;5136058;27;20182;-76
2022/10/08 09:58:25;;;;;;;436.35;197.00;;;;;;;;;;5136344;27;20664;-76
2022/10/08 10:01:01;;;;;;;443.92;204.70;;;;;;;;;;5136148;27;20202;-76
2022/10/08 10:03:28;;;;;;;442.77;207.27;;;;;;;;;;5136167;27;20223;-80
2022/10/08 10:05:57;;;;;;;457.17;220.60;;;;;;;;;;5136562;27;20218;-76
2022/10/08 10:08:44;;;;;;;463.38;217.68;;;;;;;;;;5135989;27;20446;-76
2022/10/08 10:11:15;;;;;;;450.45;195.32;;;;;;;;;;5135542;27;20254;-76
2022/10/08 10:13:42;;;;;;;449.77;202.40;;;;;;;;;;5135465;27;20244;-76
2022/10/08 10:16:13;;;;;;;22.50;21.20;;;;;;;;;;5136207;27;20252;-76
2022/10/08 10:18:48;;;;;;;20.53;19.33;;;;;;;;;;5135871;27;20763;-76
2022/10/08 10:21:18;;;;;;;43.37;27.63;;;;;;;;;;5135708;27;20456;-76
2022/10/08 10:23:50;;;;;;;20.90;19.27;;;;;;;;;;5135115;27;20855;-76
2022/10/08 10:26:21;;;;;;;20.63;19.03;;;;;;;;;;5135779;27;20822;-76
2022/10/08 10:28:51;;;;;;;19.73;18.53;;;;;;;;;;5135807;27;20780;-76
2022/10/08 10:31:22;;;;;;;62.67;52.20;;;;;;;;;;5134566;27;20444;-77
2022/10/08 10:33:52;;;;;;;22.17;20.47;;;;;;;;;;5135193;27;20483;-76
2022/10/08 10:36:21;;;;;;;25.97;24.10;;;;;;;;;;5135833;27;20497;-76
2022/10/08 10:38:52;;;;;;;21.70;20.20;;;;;;;;;;5135674;27;20418;-76
2022/10/08 10:41:25;;;;;;;20.03;18.73;;;;;;;;;;5134806;27;20418;-77
2022/10/08 10:43:54;;;;;;;20.07;18.77;;;;;;;;;;5134978;27;20962;-76
2022/10/08 10:46:28;;;;;;;19.97;18.77;;;;;;;;;;5134904;27;20486;-76
2022/10/08 10:48:56;;;;;;;23.30;21.47;;;;;;;;;;5135376;27;20432;-76
2022/10/08 10:51:37;;;;;;;20.60;18.93;;;;;;;;;;5134405;27;20426;-76
2022/10/08 10:54:09;;;;;;;20.53;19.13;;;;;;;;;;5134419;27;21026;-76
2022/10/08 10:56:43;;;;;;;20.83;19.23;;;;;;;;;;5135196;27;20427;-76
2022/10/08 10:59:21;;;;;;;62.00;54.57;;;;;;;;;;5135538;27;20431;-76
2022/10/08 11:01:51;;;;;;;21.57;20.00;;;;;;;;;;5134571;27;20822;-76
2022/10/08 11:04:22;;;;;;;21.33;20.13;;;;;;;;;;5134809;27;20962;-76
2022/10/08 11:06:58;;;;;;;22.73;21.13;;;;;;;;;;5135856;27;20469;-76
2022/10/08 11:09:31;;;;;;;19.80;18.70;;;;;;;;;;5135398;27;20474;-75
2022/10/08 11:12:02;;;;;;;20.70;19.30;;;;;;;;;;5134241;27;20460;-76
2022/10/08 11:14:38;;;;;;;19.67;18.57;;;;;;;;;;5134603;27;20438;-76
2022/10/08 11:17:10;;;;;;;21.37;19.80;;;;;;;;;;5134746;27;20446;-76
2022/10/08 11:19:45;;;;;;;20.30;19.10;;;;;;;;;;5134421;27;20900;-77
2022/10/08 11:22:16;;;;;;;22.30;20.87;;;;;;;;;;5133960;27;20411;-76
2022/10/08 11:25:01;;;;;;;20.80;19.60;;;;;;;;;;5135022;27;20424;-76
2022/10/08 11:27:34;;;;;;;21.13;19.83;;;;;;;;;;5127466;27;20998;-76
2022/10/08 11:30:06;;;;;;;19.73;18.43;;;;;;;;;;5134775;28;20435;-76
2022/10/08 11:32:34;;;;;;;19.53;18.43;;;;;;;;;;5134420;28;20466;-76
2022/10/08 11:35:05;;;;;;;21.07;19.80;;;;;;;;;;5134794;28;20455;-75
2022/10/08 11:37:35;;;;;;;21.17;19.40;;;;;;;;;;5134785;28;20423;-76
2022/10/08 11:40:08;;;;;;;20.07;18.67;;;;;;;;;;5134547;28;20796;-76
2022/10/08 11:42:39;;;;;;;20.50;19.03;;;;;;;;;;5133947;28;20474;-76
2022/10/08 11:45:27;;;;;;;18.83;17.83;;;;;;;;;;5134394;28;20436;-76
2022/10/08 11:47:54;;;;;;;20.23;18.80;;;;;;;;;;5134776;28;20487;-75
2022/10/08 11:50:24;;;;;;;20.60;19.30;;;;;;;;;;5134585;28;20524;-76
2022/10/08 11:52:52;;;;;;;21.53;20.13;;;;;;;;;;5134260;27;20806;-76
2022/10/08 11:55:21;;;;;;;20.43;19.00;;;;;;;;;;5134776;27;20920;-76
2022/10/08 11:57:56;;;;;;;20.97;19.73;;;;;;;;;;5134752;27;20451;-76
2022/10/08 12:00:29;;;;;;;25.57;23.97;;;;;;;;;;5134779;27;20471;-77
2022/10/08 12:02:56;;;;;;;21.23;20.13;;;;;;;;;;5134061;28;20472;-76
2022/10/08 12:05:33;;;;;;;20.07;18.97;;;;;;;;;;5134362;28;20459;-75
2022/10/08 12:08:04;;;;;;;21.63;20.03;;;;;;;;;;5134245;28;20469;-75
2022/10/08 12:10:33;;;;;;;21.33;20.03;;;;;;;;;;5134276;28;20406;-75
2022/10/08 12:13:03;;;;;;;20.60;19.40;;;;;;;;;;5133593;27;20480;-76
2022/10/08 12:15:53;;;;;;;21.70;20.23;;;;;;;;;;5134724;28;20419;-82
2022/10/08 12:18:30;;;;;;;20.83;19.63;;;;;;;;;;5134754;27;20467;-76
2022/10/08 12:21:12;;;;;;;21.33;20.00;;;;;;;;;;5133615;28;20409;-76
2022/10/08 12:23:39;;;;;;;21.17;19.97;;;;;;;;;;5133942;28;20470;-75
2022/10/08 12:26:10;;;;;;;20.53;19.33;;;;;;;;;;5134248;28;20833;-75
2022/10/08 12:28:49;;;;;;;20.93;19.67;;;;;;;;;;5134160;27;20428;-75
2022/10/08 12:31:38;;;;;;;21.47;20.17;;;;;;;;;;5133595;27;20456;-76
2022/10/08 12:34:13;;;;;;;20.70;19.60;;;;;;;;;;5136327;27;20543;-75
2022/10/08 12:36:46;;;;;;;21.67;20.07;;;;;;;;;;5137832;27;20928;-75
2022/10/08 12:39:19;;;;;;;20.27;19.20;;;;;;;;;;5138025;27;20422;-75
2022/10/08 12:41:51;;;;;;;20.17;19.07;;;;;;;;;;5137243;27;20427;-76
2022/10/08 12:44:25;;;;;;;21.07;19.87;;;;;;;;;;5137701;27;20467;-75
2022/10/08 12:46:58;;;;;;;20.23;19.13;;;;;;;;;;5137736;27;20456;-76
2022/10/08 12:49:28;;;;;;;20.20;19.10;;;;;;;;;;5137535;27;20448;-76
2022/10/08 12:52:00;;;;;;;20.53;19.33;;;;;;;;;;5137776;27;20448;-76
2022/10/08 12:54:28;;;;;;;20.33;19.13;;;;;;;;;;5138365;27;20447;-76
2022/10/08 12:56:56;;;;;;;21.13;19.57;;;;;;;;;;5137316;27;20481;-76
2022/10/08 12:59:30;;;;;;;21.40;20.00;;;;;;;;;;5143573;27;20478;-86
2022/10/08 13:01:57;;;;;;;20.60;19.20;;;;;;;;;;5148722;27;20508;-85
2022/10/08 13:04:25;;;;;;;20.90;19.43;;;;;;;;;;5148386;27;20449;-83
2022/10/08 13:06:54;;;;;;;20.10;19.00;;;;;;;;;;5147650;27;20480;-86
2022/10/08 13:09:26;;;;;;;20.70;19.50;;;;;;;;;;5147071;27;20443;-84
2022/10/08 13:11:54;;;;;;;20.57;19.30;;;;;;;;;;5147026;27;20798;-84
2022/10/08 13:14:26;;;;;;;20.33;19.03;;;;;;;;;;5140167;27;20471;-79
2022/10/08 13:16:54;;;;;;;21.70;20.00;;;;;;;;;;5137258;27;20443;-76
2022/10/08 13:19:27;;;;;;;20.37;19.17;;;;;;;;;;5136750;27;20806;-76
2022/10/08 13:21:56;;;;;;;21.10;19.60;;;;;;;;;;5138182;27;20423;-75
2022/10/08 13:24:31;;;;;;;20.50;19.20;;;;;;;;;;5142657;27;20496;-77
2022/10/08 13:26:58;;;;;;;21.03;19.33;;;;;;;;;;5139545;27;20844;-77
2022/10/08 13:29:34;;;;;;;19.70;18.60;;;;;;;;;;5136917;27;20449;-77
2022/10/08 13:32:03;;;;;;;19.77;18.57;;;;;;;;;;5135563;27;20471;-76
2022/10/08 13:34:32;;;;;;;20.03;18.60;;;;;;;;;;5136438;27;20439;-76
2022/10/08 13:37:01;;;;;;;21.57;19.93;;;;;;;;;;5136776;27;20453;-76
2022/10/08 13:39:29;;;;;;;20.83;19.40;;;;;;;;;;5136713;27;20452;-77
2022/10/08 13:41:57;;;;;;;21.93;20.40;;;;;;;;;;5135748;27;20469;-77
2022/10/08 13:44:25;;;;;;;22.10;20.27;;;;;;;;;;5136261;27;20456;-76
2022/10/08 13:46:54;;;;;;;21.30;20.00;;;;;;;;;;5136222;27;20450;-76
2022/10/08 13:49:22;;;;;;;21.33;19.83;;;;;;;;;;5136802;27;20451;-76
2022/10/08 13:51:49;;;;;;;21.17;19.67;;;;;;;;;;5135698;27;20429;-76
2022/10/08 13:54:20;;;;;;;20.23;19.03;;;;;;;;;;5136249;27;20504;-77
2022/10/08 13:56:47;;;;;;;19.50;18.40;;;;;;;;;;5135731;27;20468;-77
2022/10/08 13:59:14;;;;;;;20.03;18.80;;;;;;;;;;5136308;27;20452;-77
2022/10/08 14:01:42;;;;;;;19.57;18.47;;;;;;;;;;5135479;27;20452;-77
2022/10/08 14:04:10;;;;;;;20.10;19.03;;;;;;;;;;5135988;27;20469;-77
2022/10/08 14:06:38;;;;;;;22.10;20.80;;;;;;;;;;5135825;27;20476;-77
2022/10/08 14:09:06;;;;;;;21.83;20.37;;;;;;;;;;5135559;27;20931;-77
2022/10/08 14:11:33;;;;;;;21.23;19.83;;;;;;;;;;5135642;27;20435;-77
2022/10/08 14:14:01;;;;;;;21.20;19.90;;;;;;;;;;5135598;27;20504;-76